sensor_id;sensor_type;location;lat;lon;timestamp;P1;durP1;ratioP1;P2;durP2;ratioP2
73776;SDS011;62088;50.240;2.696;2023-04-15T00:01:09;2.55;;;1.33;;
73776;SDS011;62088;50.240;2.696;2023-04-15T00:03:37;4.53;;;1.60;;
73776;SDS011;62088;50.240;2.696;2023-04-15T00:06:05;4.07;;;1.67;;
73776;SDS011;62088;50.240;2.696;2023-04-15T00:08:32;3.17;;;1.60;;
73776;SDS011;62088;50.240;2.696;2023-04-15T00:10:59;3.75;;;1.48;;
73776;SDS011;62088;50.240;2.696;2023-04-15T00:13:28;4.63;;;1.83;;
73776;SDS011;62088;50.240;2.696;2023-04-15T00:15:56;3.50;;;1.55;;
73776;SDS011;62088;50.240;2.696;2023-04-15T00:18:23;4.40;;;1.88;;
73776;SDS011;62088;50.240;2.696;2023-04-15T00:20:50;3.33;;;1.60;;
73776;SDS011;62088;50.240;2.696;2023-04-15T00:23:18;4.15;;;1.38;;
73776;SDS011;62088;50.240;2.696;2023-04-15T00:25:45;3.83;;;1.60;;
73776;SDS011;62088;50.240;2.696;2023-04-15T00:28:13;3.60;;;1.70;;
73776;SDS011;62088;50.240;2.696;2023-04-15T00:30:41;2.78;;;1.52;;
73776;SDS011;62088;50.240;2.696;2023-04-15T00:33:08;3.17;;;1.50;;
73776;SDS011;62088;50.240;2.696;2023-04-15T00:35:36;3.13;;;1.58;;
73776;SDS011;62088;50.240;2.696;2023-04-15T00:38:04;4.25;;;1.92;;
73776;SDS011;62088;50.240;2.696;2023-04-15T00:40:32;3.85;;;1.70;;
73776;SDS011;62088;50.240;2.696;2023-04-15T00:42:59;3.05;;;1.52;;
73776;SDS011;62088;50.240;2.696;2023-04-15T00:45:27;4.50;;;1.85;;
73776;SDS011;62088;50.240;2.696;2023-04-15T00:47:55;4.72;;;2.08;;
73776;SDS011;62088;50.240;2.696;2023-04-15T00:50:23;4.10;;;1.90;;
73776;SDS011;62088;50.240;2.696;2023-04-15T00:52:50;4.30;;;2.13;;
73776;SDS011;62088;50.240;2.696;2023-04-15T00:55:17;3.70;;;2.00;;
73776;SDS011;62088;50.240;2.696;2023-04-15T00:57:45;5.43;;;2.25;;
73776;SDS011;62088;50.240;2.696;2023-04-15T01:00:12;3.88;;;2.20;;
73776;SDS011;62088;50.240;2.696;2023-04-15T01:02:39;3.67;;;2.00;;
73776;SDS011;62088;50.240;2.696;2023-04-15T01:05:07;3.70;;;1.90;;
73776;SDS011;62088;50.240;2.696;2023-04-15T01:07:35;4.95;;;2.15;;
73776;SDS011;62088;50.240;2.696;2023-04-15T01:10:02;4.53;;;2.10;;
73776;SDS011;62088;50.240;2.696;2023-04-15T01:12:30;3.35;;;1.80;;
73776;SDS011;62088;50.240;2.696;2023-04-15T01:14:58;5.18;;;2.00;;
73776;SDS011;62088;50.240;2.696;2023-04-15T01:17:26;3.65;;;2.00;;
73776;SDS011;62088;50.240;2.696;2023-04-15T01:19:54;4.18;;;2.20;;
73776;SDS011;62088;50.240;2.696;2023-04-15T01:22:23;4.30;;;2.17;;
73776;SDS011;62088;50.240;2.696;2023-04-15T01:25:11;4.45;;;2.15;;
73776;SDS011;62088;50.240;2.696;2023-04-15T01:27:43;3.92;;;1.92;;
73776;SDS011;62088;50.240;2.696;2023-04-15T01:30:10;4.55;;;2.10;;
73776;SDS011;62088;50.240;2.696;2023-04-15T01:32:37;4.72;;;2.30;;
73776;SDS011;62088;50.240;2.696;2023-04-15T01:35:04;4.72;;;2.50;;
73776;SDS011;62088;50.240;2.696;2023-04-15T01:37:32;5.40;;;2.38;;
73776;SDS011;62088;50.240;2.696;2023-04-15T01:39:59;4.97;;;2.40;;
73776;SDS011;62088;50.240;2.696;2023-04-15T01:42:26;4.25;;;2.22;;
73776;SDS011;62088;50.240;2.696;2023-04-15T01:44:53;4.28;;;2.15;;
73776;SDS011;62088;50.240;2.696;2023-04-15T01:47:21;4.78;;;1.90;;
73776;SDS011;62088;50.240;2.696;2023-04-15T01:49:48;3.83;;;2.25;;
73776;SDS011;62088;50.240;2.696;2023-04-15T01:52:15;3.97;;;2.17;;
73776;SDS011;62088;50.240;2.696;2023-04-15T01:54:42;3.65;;;2.05;;
73776;SDS011;62088;50.240;2.696;2023-04-15T01:57:10;4.50;;;2.88;;
73776;SDS011;62088;50.240;2.696;2023-04-15T01:59:38;4.10;;;2.17;;
73776;SDS011;62088;50.240;2.696;2023-04-15T02:02:05;4.50;;;2.42;;
73776;SDS011;62088;50.240;2.696;2023-04-15T02:04:32;5.18;;;2.50;;
73776;SDS011;62088;50.240;2.696;2023-04-15T02:06:59;5.13;;;1.52;;
73776;SDS011;62088;50.240;2.696;2023-04-15T02:09:27;3.83;;;2.13;;
73776;SDS011;62088;50.240;2.696;2023-04-15T02:11:54;3.92;;;2.40;;
73776;SDS011;62088;50.240;2.696;2023-04-15T02:14:22;4.60;;;2.47;;
73776;SDS011;62088;50.240;2.696;2023-04-15T02:16:49;4.25;;;2.50;;
73776;SDS011;62088;50.240;2.696;2023-04-15T02:19:17;3.65;;;2.22;;
73776;SDS011;62088;50.240;2.696;2023-04-15T02:21:44;4.13;;;2.25;;
73776;SDS011;62088;50.240;2.696;2023-04-15T02:24:11;5.25;;;2.78;;
73776;SDS011;62088;50.240;2.696;2023-04-15T02:26:39;4.60;;;2.40;;
73776;SDS011;62088;50.240;2.696;2023-04-15T02:29:06;6.47;;;2.38;;
73776;SDS011;62088;50.240;2.696;2023-04-15T02:31:33;3.80;;;2.10;;
73776;SDS011;62088;50.240;2.696;2023-04-15T02:34:05;4.45;;;2.60;;
73776;SDS011;62088;50.240;2.696;2023-04-15T02:36:33;5.07;;;2.55;;
73776;SDS011;62088;50.240;2.696;2023-04-15T02:39:00;4.32;;;2.20;;
73776;SDS011;62088;50.240;2.696;2023-04-15T02:41:28;3.53;;;1.75;;
73776;SDS011;62088;50.240;2.696;2023-04-15T02:43:56;4.13;;;2.42;;
73776;SDS011;62088;50.240;2.696;2023-04-15T02:46:23;4.72;;;2.20;;
73776;SDS011;62088;50.240;2.696;2023-04-15T02:48:50;4.03;;;2.22;;
73776;SDS011;62088;50.240;2.696;2023-04-15T02:51:20;4.93;;;2.30;;
73776;SDS011;62088;50.240;2.696;2023-04-15T02:53:51;4.65;;;2.33;;
73776;SDS011;62088;50.240;2.696;2023-04-15T02:56:18;6.82;;;2.22;;
73776;SDS011;62088;50.240;2.696;2023-04-15T02:58:46;4.30;;;2.25;;
73776;SDS011;62088;50.240;2.696;2023-04-15T03:01:16;4.07;;;2.42;;
73776;SDS011;62088;50.240;2.696;2023-04-15T03:03:43;3.67;;;2.30;;
73776;SDS011;62088;50.240;2.696;2023-04-15T03:06:10;4.20;;;2.10;;
73776;SDS011;62088;50.240;2.696;2023-04-15T03:08:37;4.85;;;2.30;;
73776;SDS011;62088;50.240;2.696;2023-04-15T03:11:04;4.20;;;1.92;;
73776;SDS011;62088;50.240;2.696;2023-04-15T03:13:34;3.92;;;2.22;;
73776;SDS011;62088;50.240;2.696;2023-04-15T03:16:08;4.30;;;2.40;;
73776;SDS011;62088;50.240;2.696;2023-04-15T03:18:36;4.35;;;2.20;;
73776;SDS011;62088;50.240;2.696;2023-04-15T03:21:03;3.60;;;2.20;;
73776;SDS011;62088;50.240;2.696;2023-04-15T03:23:34;3.90;;;2.25;;
73776;SDS011;62088;50.240;2.696;2023-04-15T03:26:01;5.70;;;2.20;;
73776;SDS011;62088;50.240;2.696;2023-04-15T03:28:31;3.70;;;1.92;;
73776;SDS011;62088;50.240;2.696;2023-04-15T03:30:58;3.45;;;1.65;;
73776;SDS011;62088;50.240;2.696;2023-04-15T03:33:26;3.55;;;1.98;;
73776;SDS011;62088;50.240;2.696;2023-04-15T03:35:53;4.88;;;2.00;;
73776;SDS011;62088;50.240;2.696;2023-04-15T03:38:21;3.33;;;1.55;;
73776;SDS011;62088;50.240;2.696;2023-04-15T03:40:48;6.72;;;2.30;;
73776;SDS011;62088;50.240;2.696;2023-04-15T03:43:15;3.60;;;2.08;;
73776;SDS011;62088;50.240;2.696;2023-04-15T03:45:42;4.82;;;2.13;;
73776;SDS011;62088;50.240;2.696;2023-04-15T03:48:09;3.53;;;2.20;;
73776;SDS011;62088;50.240;2.696;2023-04-15T03:53:10;2.38;;;1.17;;
73776;SDS011;62088;50.240;2.696;2023-04-15T03:55:37;4.63;;;2.30;;
73776;SDS011;62088;50.240;2.696;2023-04-15T03:58:05;5.22;;;2.42;;
73776;SDS011;62088;50.240;2.696;2023-04-15T04:00:32;5.25;;;2.50;;
73776;SDS011;62088;50.240;2.696;2023-04-15T04:02:59;4.78;;;2.17;;
73776;SDS011;62088;50.240;2.696;2023-04-15T04:05:27;5.05;;;2.60;;
73776;SDS011;62088;50.240;2.696;2023-04-15T04:07:54;3.33;;;1.60;;
73776;SDS011;62088;50.240;2.696;2023-04-15T04:10:21;6.50;;;2.70;;
73776;SDS011;62088;50.240;2.696;2023-04-15T04:12:48;6.25;;;2.90;;
73776;SDS011;62088;50.240;2.696;2023-04-15T04:15:15;4.22;;;2.47;;
73776;SDS011;62088;50.240;2.696;2023-04-15T04:17:42;5.22;;;2.90;;
73776;SDS011;62088;50.240;2.696;2023-04-15T04:20:09;4.60;;;2.85;;
73776;SDS011;62088;50.240;2.696;2023-04-15T04:22:37;6.47;;;2.92;;
73776;SDS011;62088;50.240;2.696;2023-04-15T04:25:05;6.10;;;2.90;;
73776;SDS011;62088;50.240;2.696;2023-04-15T04:27:34;6.72;;;3.38;;
73776;SDS011;62088;50.240;2.696;2023-04-15T04:30:01;5.82;;;3.15;;
73776;SDS011;62088;50.240;2.696;2023-04-15T04:32:28;5.93;;;3.50;;
73776;SDS011;62088;50.240;2.696;2023-04-15T04:34:55;5.28;;;3.13;;
73776;SDS011;62088;50.240;2.696;2023-04-15T04:37:22;7.43;;;3.90;;
73776;SDS011;62088;50.240;2.696;2023-04-15T04:39:50;6.47;;;4.20;;
73776;SDS011;62088;50.240;2.696;2023-04-15T04:42:17;8.02;;;4.88;;
73776;SDS011;62088;50.240;2.696;2023-04-15T04:44:44;7.88;;;5.00;;
73776;SDS011;62088;50.240;2.696;2023-04-15T04:47:11;8.90;;;5.70;;
73776;SDS011;62088;50.240;2.696;2023-04-15T04:49:39;10.27;;;6.22;;
73776;SDS011;62088;50.240;2.696;2023-04-15T04:52:06;8.75;;;5.97;;
73776;SDS011;62088;50.240;2.696;2023-04-15T04:54:33;10.25;;;7.30;;
73776;SDS011;62088;50.240;2.696;2023-04-15T04:57:01;10.10;;;6.72;;
73776;SDS011;62088;50.240;2.696;2023-04-15T04:59:28;10.52;;;7.72;;
73776;SDS011;62088;50.240;2.696;2023-04-15T05:01:55;10.05;;;7.43;;
73776;SDS011;62088;50.240;2.696;2023-04-15T05:04:22;10.75;;;7.93;;
73776;SDS011;62088;50.240;2.696;2023-04-15T05:06:49;10.50;;;8.10;;
73776;SDS011;62088;50.240;2.696;2023-04-15T05:09:17;10.13;;;7.75;;
73776;SDS011;62088;50.240;2.696;2023-04-15T05:11:48;9.98;;;8.60;;
73776;SDS011;62088;50.240;2.696;2023-04-15T05:14:15;10.05;;;8.40;;
73776;SDS011;62088;50.240;2.696;2023-04-15T05:16:43;10.18;;;8.38;;
73776;SDS011;62088;50.240;2.696;2023-04-15T05:19:10;11.05;;;8.23;;
73776;SDS011;62088;50.240;2.696;2023-04-15T05:21:37;9.93;;;8.27;;
73776;SDS011;62088;50.240;2.696;2023-04-15T05:24:05;8.48;;;7.07;;
73776;SDS011;62088;50.240;2.696;2023-04-15T05:26:32;8.85;;;7.30;;
73776;SDS011;62088;50.240;2.696;2023-04-15T05:28:59;8.80;;;7.00;;
73776;SDS011;62088;50.240;2.696;2023-04-15T05:31:27;9.15;;;7.18;;
73776;SDS011;62088;50.240;2.696;2023-04-15T05:33:54;8.45;;;6.93;;
73776;SDS011;62088;50.240;2.696;2023-04-15T05:36:21;7.88;;;6.88;;
73776;SDS011;62088;50.240;2.696;2023-04-15T05:38:48;8.75;;;6.82;;
73776;SDS011;62088;50.240;2.696;2023-04-15T05:41:15;9.32;;;7.32;;
73776;SDS011;62088;50.240;2.696;2023-04-15T05:43:45;7.55;;;6.10;;
73776;SDS011;62088;50.240;2.696;2023-04-15T05:46:12;9.30;;;7.47;;
73776;SDS011;62088;50.240;2.696;2023-04-15T05:48:39;10.57;;;7.82;;
73776;SDS011;62088;50.240;2.696;2023-04-15T05:51:07;9.90;;;8.15;;
73776;SDS011;62088;50.240;2.696;2023-04-15T05:53:34;9.32;;;8.32;;
73776;SDS011;62088;50.240;2.696;2023-04-15T05:56:01;9.88;;;8.88;;
73776;SDS011;62088;50.240;2.696;2023-04-15T05:58:28;10.73;;;9.13;;
73776;SDS011;62088;50.240;2.696;2023-04-15T06:00:55;9.93;;;8.35;;
73776;SDS011;62088;50.240;2.696;2023-04-15T06:03:22;10.93;;;8.95;;
73776;SDS011;62088;50.240;2.696;2023-04-15T06:05:49;10.32;;;9.27;;
73776;SDS011;62088;50.240;2.696;2023-04-15T06:08:16;11.15;;;9.63;;
73776;SDS011;62088;50.240;2.696;2023-04-15T06:10:44;12.00;;;10.43;;
73776;SDS011;62088;50.240;2.696;2023-04-15T06:13:11;10.82;;;9.20;;
73776;SDS011;62088;50.240;2.696;2023-04-15T06:15:38;11.27;;;10.07;;
73776;SDS011;62088;50.240;2.696;2023-04-15T06:18:05;12.27;;;10.57;;
73776;SDS011;62088;50.240;2.696;2023-04-15T06:20:33;11.00;;;9.90;;
73776;SDS011;62088;50.240;2.696;2023-04-15T06:23:02;11.57;;;10.35;;
73776;SDS011;62088;50.240;2.696;2023-04-15T06:25:29;11.77;;;10.38;;
73776;SDS011;62088;50.240;2.696;2023-04-15T06:27:56;12.63;;;11.32;;
73776;SDS011;62088;50.240;2.696;2023-04-15T06:30:23;11.93;;;10.13;;
73776;SDS011;62088;50.240;2.696;2023-04-15T06:32:50;11.48;;;10.13;;
73776;SDS011;62088;50.240;2.696;2023-04-15T06:35:18;12.15;;;10.88;;
73776;SDS011;62088;50.240;2.696;2023-04-15T06:37:45;11.85;;;10.23;;
73776;SDS011;62088;50.240;2.696;2023-04-15T06:40:12;12.77;;;10.93;;
73776;SDS011;62088;50.240;2.696;2023-04-15T06:42:39;12.63;;;10.80;;
73776;SDS011;62088;50.240;2.696;2023-04-15T06:45:07;11.10;;;10.05;;
73776;SDS011;62088;50.240;2.696;2023-04-15T06:47:34;11.93;;;10.73;;
73776;SDS011;62088;50.240;2.696;2023-04-15T06:50:02;13.23;;;11.10;;
73776;SDS011;62088;50.240;2.696;2023-04-15T06:52:29;11.35;;;10.25;;
73776;SDS011;62088;50.240;2.696;2023-04-15T06:54:56;10.77;;;9.68;;
73776;SDS011;62088;50.240;2.696;2023-04-15T06:57:25;10.85;;;9.75;;
73776;SDS011;62088;50.240;2.696;2023-04-15T06:59:52;10.15;;;9.02;;
73776;SDS011;62088;50.240;2.696;2023-04-15T07:02:20;10.10;;;8.73;;
73776;SDS011;62088;50.240;2.696;2023-04-15T07:04:47;8.75;;;7.82;;
73776;SDS011;62088;50.240;2.696;2023-04-15T07:07:14;9.88;;;8.35;;
73776;SDS011;62088;50.240;2.696;2023-04-15T07:09:43;8.65;;;7.30;;
73776;SDS011;62088;50.240;2.696;2023-04-15T07:12:10;8.48;;;7.30;;
73776;SDS011;62088;50.240;2.696;2023-04-15T07:14:37;8.65;;;7.75;;
73776;SDS011;62088;50.240;2.696;2023-04-15T07:17:04;9.52;;;8.57;;
73776;SDS011;62088;50.240;2.696;2023-04-15T07:19:32;10.82;;;9.73;;
73776;SDS011;62088;50.240;2.696;2023-04-15T07:21:59;11.77;;;10.57;;
73776;SDS011;62088;50.240;2.696;2023-04-15T07:24:26;12.50;;;11.30;;
73776;SDS011;62088;50.240;2.696;2023-04-15T07:26:53;14.50;;;13.00;;
73776;SDS011;62088;50.240;2.696;2023-04-15T07:29:26;14.38;;;12.90;;
73776;SDS011;62088;50.240;2.696;2023-04-15T07:31:53;13.40;;;12.00;;
73776;SDS011;62088;50.240;2.696;2023-04-15T07:34:20;14.93;;;12.68;;
73776;SDS011;62088;50.240;2.696;2023-04-15T07:36:47;12.60;;;11.30;;
73776;SDS011;62088;50.240;2.696;2023-04-15T07:39:17;13.77;;;11.07;;
73776;SDS011;62088;50.240;2.696;2023-04-15T07:41:44;12.25;;;9.75;;
73776;SDS011;62088;50.240;2.696;2023-04-15T07:44:12;10.90;;;9.30;;
73776;SDS011;62088;50.240;2.696;2023-04-15T07:46:39;12.68;;;9.32;;
73776;SDS011;62088;50.240;2.696;2023-04-15T07:49:06;13.82;;;10.05;;
73776;SDS011;62088;50.240;2.696;2023-04-15T07:51:33;11.70;;;10.23;;
73776;SDS011;62088;50.240;2.696;2023-04-15T07:54:00;13.20;;;10.60;;
73776;SDS011;62088;50.240;2.696;2023-04-15T07:56:28;11.68;;;10.40;;
73776;SDS011;62088;50.240;2.696;2023-04-15T07:58:55;14.50;;;12.40;;
73776;SDS011;62088;50.240;2.696;2023-04-15T08:01:22;14.50;;;11.10;;
73776;SDS011;62088;50.240;2.696;2023-04-15T08:03:49;14.60;;;12.23;;
73776;SDS011;62088;50.240;2.696;2023-04-15T08:06:17;16.80;;;12.95;;
73776;SDS011;62088;50.240;2.696;2023-04-15T08:08:44;13.57;;;12.02;;
73776;SDS011;62088;50.240;2.696;2023-04-15T08:11:11;15.00;;;12.30;;
73776;SDS011;62088;50.240;2.696;2023-04-15T08:13:38;14.07;;;12.35;;
73776;SDS011;62088;50.240;2.696;2023-04-15T08:16:21;12.07;;;10.35;;
73776;SDS011;62088;50.240;2.696;2023-04-15T08:18:50;14.48;;;12.68;;
73776;SDS011;62088;50.240;2.696;2023-04-15T08:21:19;14.50;;;13.00;;
73776;SDS011;62088;50.240;2.696;2023-04-15T08:23:47;22.67;;;15.18;;
73776;SDS011;62088;50.240;2.696;2023-04-15T08:26:18;17.90;;;14.70;;
73776;SDS011;62088;50.240;2.696;2023-04-15T08:28:46;15.30;;;13.63;;
73776;SDS011;62088;50.240;2.696;2023-04-15T08:31:14;15.05;;;13.52;;
73776;SDS011;62088;50.240;2.696;2023-04-15T08:33:43;17.08;;;14.48;;
73776;SDS011;62088;50.240;2.696;2023-04-15T08:36:10;16.58;;;14.85;;
73776;SDS011;62088;50.240;2.696;2023-04-15T08:38:39;14.73;;;13.23;;
73776;SDS011;62088;50.240;2.696;2023-04-15T08:41:09;16.17;;;13.55;;
73776;SDS011;62088;50.240;2.696;2023-04-15T08:43:56;15.27;;;12.73;;
73776;SDS011;62088;50.240;2.696;2023-04-15T08:46:26;13.02;;;11.73;;
73776;SDS011;62088;50.240;2.696;2023-04-15T08:48:55;15.60;;;13.57;;
73776;SDS011;62088;50.240;2.696;2023-04-15T08:51:23;14.93;;;13.38;;
73776;SDS011;62088;50.240;2.696;2023-04-15T08:53:50;14.52;;;13.02;;
73776;SDS011;62088;50.240;2.696;2023-04-15T08:56:18;15.65;;;13.35;;
73776;SDS011;62088;50.240;2.696;2023-04-15T08:58:49;14.55;;;12.73;;
73776;SDS011;62088;50.240;2.696;2023-04-15T09:01:16;14.00;;;12.50;;
73776;SDS011;62088;50.240;2.696;2023-04-15T09:03:44;12.80;;;11.50;;
73776;SDS011;62088;50.240;2.696;2023-04-15T09:06:16;13.90;;;12.32;;
73776;SDS011;62088;50.240;2.696;2023-04-15T09:08:43;12.85;;;11.52;;
73776;SDS011;62088;50.240;2.696;2023-04-15T09:11:10;13.27;;;11.90;;
73776;SDS011;62088;50.240;2.696;2023-04-15T09:13:37;12.35;;;11.05;;
73776;SDS011;62088;50.240;2.696;2023-04-15T09:16:05;12.20;;;10.90;;
73776;SDS011;62088;50.240;2.696;2023-04-15T09:18:34;13.05;;;11.50;;
73776;SDS011;62088;50.240;2.696;2023-04-15T09:21:06;13.27;;;11.88;;
73776;SDS011;62088;50.240;2.696;2023-04-15T09:23:37;12.45;;;11.15;;
73776;SDS011;62088;50.240;2.696;2023-04-15T09:26:09;12.48;;;10.57;;
73776;SDS011;62088;50.240;2.696;2023-04-15T09:28:40;11.55;;;10.27;;
73776;SDS011;62088;50.240;2.696;2023-04-15T09:31:08;10.35;;;8.77;;
73776;SDS011;62088;50.240;2.696;2023-04-15T09:33:36;10.90;;;9.68;;
73776;SDS011;62088;50.240;2.696;2023-04-15T09:36:22;9.18;;;8.23;;
73776;SDS011;62088;50.240;2.696;2023-04-15T09:38:54;10.88;;;8.75;;
73776;SDS011;62088;50.240;2.696;2023-04-15T09:41:26;10.82;;;8.23;;
73776;SDS011;62088;50.240;2.696;2023-04-15T09:43:53;10.85;;;7.95;;
73776;SDS011;62088;50.240;2.696;2023-04-15T09:46:38;8.70;;;7.43;;
73776;SDS011;62088;50.240;2.696;2023-04-15T09:49:08;8.07;;;6.05;;
73776;SDS011;62088;50.240;2.696;2023-04-15T09:51:36;7.13;;;5.70;;
73776;SDS011;62088;50.240;2.696;2023-04-15T09:54:04;7.80;;;6.45;;
73776;SDS011;62088;50.240;2.696;2023-04-15T09:56:34;7.15;;;5.88;;
73776;SDS011;62088;50.240;2.696;2023-04-15T09:59:04;7.95;;;5.75;;
73776;SDS011;62088;50.240;2.696;2023-04-15T10:01:31;7.13;;;5.28;;
73776;SDS011;62088;50.240;2.696;2023-04-15T10:03:58;6.38;;;4.80;;
73776;SDS011;62088;50.240;2.696;2023-04-15T10:06:29;7.18;;;5.70;;
73776;SDS011;62088;50.240;2.696;2023-04-15T10:08:57;7.13;;;4.72;;
73776;SDS011;62088;50.240;2.696;2023-04-15T10:11:27;6.55;;;4.30;;
73776;SDS011;62088;50.240;2.696;2023-04-15T10:13:57;7.22;;;4.95;;
73776;SDS011;62088;50.240;2.696;2023-04-15T10:16:25;6.65;;;4.70;;
73776;SDS011;62088;50.240;2.696;2023-04-15T10:18:56;6.35;;;3.80;;
73776;SDS011;62088;50.240;2.696;2023-04-15T10:21:26;6.63;;;4.60;;
73776;SDS011;62088;50.240;2.696;2023-04-15T10:23:56;8.45;;;4.60;;
73776;SDS011;62088;50.240;2.696;2023-04-15T10:26:24;7.25;;;4.05;;
73776;SDS011;62088;50.240;2.696;2023-04-15T10:28:54;6.55;;;3.97;;
73776;SDS011;62088;50.240;2.696;2023-04-15T10:31:24;8.45;;;4.03;;
73776;SDS011;62088;50.240;2.696;2023-04-15T10:33:52;5.93;;;3.90;;
73776;SDS011;62088;50.240;2.696;2023-04-15T10:36:19;7.70;;;4.03;;
73776;SDS011;62088;50.240;2.696;2023-04-15T10:38:46;8.20;;;4.45;;
73776;SDS011;62088;50.240;2.696;2023-04-15T10:47:03;7.72;;;3.95;;
73776;SDS011;62088;50.240;2.696;2023-04-15T10:49:24;5.70;;;3.58;;
73776;SDS011;62088;50.240;2.696;2023-04-15T10:51:56;6.00;;;3.75;;
73776;SDS011;62088;50.240;2.696;2023-04-15T10:56:51;8.00;;;4.38;;
73776;SDS011;62088;50.240;2.696;2023-04-15T10:59:36;5.20;;;3.15;;
73776;SDS011;62088;50.240;2.696;2023-04-15T11:02:39;6.63;;;3.67;;
73776;SDS011;62088;50.240;2.696;2023-04-15T11:05:07;6.57;;;3.90;;
73776;SDS011;62088;50.240;2.696;2023-04-15T11:07:54;7.90;;;3.60;;
73776;SDS011;62088;50.240;2.696;2023-04-15T11:12:52;6.80;;;3.80;;
73776;SDS011;62088;50.240;2.696;2023-04-15T11:15:35;6.75;;;3.92;;
73776;SDS011;62088;50.240;2.696;2023-04-15T11:20:39;8.57;;;3.85;;
73776;SDS011;62088;50.240;2.696;2023-04-15T11:23:08;6.70;;;3.70;;
73776;SDS011;62088;50.240;2.696;2023-04-15T11:25:40;5.88;;;3.83;;
73776;SDS011;62088;50.240;2.696;2023-04-15T11:28:10;9.13;;;4.72;;
73776;SDS011;62088;50.240;2.696;2023-04-15T11:30:41;6.82;;;3.67;;
73776;SDS011;62088;50.240;2.696;2023-04-15T11:33:09;9.23;;;3.70;;
73776;SDS011;62088;50.240;2.696;2023-04-15T11:35:39;6.00;;;4.00;;
73776;SDS011;62088;50.240;2.696;2023-04-15T11:38:10;5.93;;;3.70;;
73776;SDS011;62088;50.240;2.696;2023-04-15T11:40:39;7.53;;;4.10;;
73776;SDS011;62088;50.240;2.696;2023-04-15T11:43:10;7.03;;;3.75;;
73776;SDS011;62088;50.240;2.696;2023-04-15T11:45:51;5.82;;;3.85;;
73776;SDS011;62088;50.240;2.696;2023-04-15T11:48:20;7.68;;;4.25;;
73776;SDS011;62088;50.240;2.696;2023-04-15T11:50:53;7.75;;;4.78;;
73776;SDS011;62088;50.240;2.696;2023-04-15T11:53:21;7.22;;;5.15;;
73776;SDS011;62088;50.240;2.696;2023-04-15T11:55:50;7.30;;;5.05;;
73776;SDS011;62088;50.240;2.696;2023-04-15T11:58:19;7.57;;;4.60;;
73776;SDS011;62088;50.240;2.696;2023-04-15T12:00:50;8.48;;;4.88;;
73776;SDS011;62088;50.240;2.696;2023-04-15T12:03:23;9.10;;;4.35;;
73776;SDS011;62088;50.240;2.696;2023-04-15T12:06:04;8.70;;;4.90;;
73776;SDS011;62088;50.240;2.696;2023-04-15T12:11:20;6.53;;;4.25;;
73776;SDS011;62088;50.240;2.696;2023-04-15T12:16:46;9.18;;;4.80;;
73776;SDS011;62088;50.240;2.696;2023-04-15T12:19:24;8.48;;;4.45;;
73776;SDS011;62088;50.240;2.696;2023-04-15T12:21:59;8.05;;;4.80;;
73776;SDS011;62088;50.240;2.696;2023-04-15T12:24:32;8.48;;;4.97;;
73776;SDS011;62088;50.240;2.696;2023-04-15T12:27:01;9.63;;;4.70;;
73776;SDS011;62088;50.240;2.696;2023-04-15T12:29:29;8.48;;;4.75;;
73776;SDS011;62088;50.240;2.696;2023-04-15T12:34:38;9.35;;;4.97;;
73776;SDS011;62088;50.240;2.696;2023-04-15T12:37:10;9.70;;;5.72;;
73776;SDS011;62088;50.240;2.696;2023-04-15T12:39:42;10.02;;;5.95;;
73776;SDS011;62088;50.240;2.696;2023-04-15T12:42:10;11.10;;;6.03;;
73776;SDS011;62088;50.240;2.696;2023-04-15T12:44:38;9.55;;;5.60;;
73776;SDS011;62088;50.240;2.696;2023-04-15T12:47:06;9.23;;;5.63;;
73776;SDS011;62088;50.240;2.696;2023-04-15T12:49:34;13.00;;;6.93;;
73776;SDS011;62088;50.240;2.696;2023-04-15T12:52:01;11.60;;;7.32;;
73776;SDS011;62088;50.240;2.696;2023-04-15T12:54:29;10.50;;;7.15;;
73776;SDS011;62088;50.240;2.696;2023-04-15T12:56:57;12.40;;;7.53;;
73776;SDS011;62088;50.240;2.696;2023-04-15T12:59:25;11.52;;;7.80;;
73776;SDS011;62088;50.240;2.696;2023-04-15T13:01:52;12.63;;;7.72;;
73776;SDS011;62088;50.240;2.696;2023-04-15T13:04:20;11.60;;;7.53;;
73776;SDS011;62088;50.240;2.696;2023-04-15T13:06:49;12.35;;;8.45;;
73776;SDS011;62088;50.240;2.696;2023-04-15T13:09:16;13.00;;;9.35;;
73776;SDS011;62088;50.240;2.696;2023-04-15T13:11:43;12.98;;;8.77;;
73776;SDS011;62088;50.240;2.696;2023-04-15T13:14:10;12.38;;;8.63;;
73776;SDS011;62088;50.240;2.696;2023-04-15T13:16:38;11.07;;;8.20;;
73776;SDS011;62088;50.240;2.696;2023-04-15T13:19:06;14.57;;;8.75;;
73776;SDS011;62088;50.240;2.696;2023-04-15T13:21:33;9.27;;;7.85;;
73776;SDS011;62088;50.240;2.696;2023-04-15T13:24:02;10.18;;;7.80;;
73776;SDS011;62088;50.240;2.696;2023-04-15T13:26:30;10.20;;;7.25;;
73776;SDS011;62088;50.240;2.696;2023-04-15T13:28:58;11.75;;;7.63;;
73776;SDS011;62088;50.240;2.696;2023-04-15T13:31:26;11.30;;;8.05;;
73776;SDS011;62088;50.240;2.696;2023-04-15T13:33:53;10.65;;;7.95;;
73776;SDS011;62088;50.240;2.696;2023-04-15T13:36:20;9.40;;;7.57;;
73776;SDS011;62088;50.240;2.696;2023-04-15T13:38:47;11.45;;;8.25;;
73776;SDS011;62088;50.240;2.696;2023-04-15T13:41:17;11.18;;;8.18;;
73776;SDS011;62088;50.240;2.696;2023-04-15T13:43:44;11.68;;;8.15;;
73776;SDS011;62088;50.240;2.696;2023-04-15T13:46:12;9.85;;;7.32;;
73776;SDS011;62088;50.240;2.696;2023-04-15T13:48:39;10.90;;;7.20;;
73776;SDS011;62088;50.240;2.696;2023-04-15T13:51:07;10.50;;;8.02;;
73776;SDS011;62088;50.240;2.696;2023-04-15T13:53:34;11.10;;;7.05;;
73776;SDS011;62088;50.240;2.696;2023-04-15T13:56:08;10.00;;;7.03;;
73776;SDS011;62088;50.240;2.696;2023-04-15T13:58:35;8.95;;;6.32;;
73776;SDS011;62088;50.240;2.696;2023-04-15T14:01:04;8.95;;;6.57;;
73776;SDS011;62088;50.240;2.696;2023-04-15T14:03:35;10.73;;;6.60;;
73776;SDS011;62088;50.240;2.696;2023-04-15T14:06:04;10.40;;;6.50;;
73776;SDS011;62088;50.240;2.696;2023-04-15T14:08:31;8.13;;;5.75;;
73776;SDS011;62088;50.240;2.696;2023-04-15T14:10:58;9.18;;;6.20;;
73776;SDS011;62088;50.240;2.696;2023-04-15T14:13:25;9.98;;;6.25;;
73776;SDS011;62088;50.240;2.696;2023-04-15T14:15:52;9.27;;;5.88;;
73776;SDS011;62088;50.240;2.696;2023-04-15T14:18:19;8.85;;;5.43;;
73776;SDS011;62088;50.240;2.696;2023-04-15T14:20:47;9.05;;;6.40;;
73776;SDS011;62088;50.240;2.696;2023-04-15T14:23:14;8.68;;;5.93;;
73776;SDS011;62088;50.240;2.696;2023-04-15T14:25:41;9.65;;;5.85;;
73776;SDS011;62088;50.240;2.696;2023-04-15T14:28:08;10.35;;;5.88;;
73776;SDS011;62088;50.240;2.696;2023-04-15T14:30:35;9.85;;;6.25;;
73776;SDS011;62088;50.240;2.696;2023-04-15T14:33:02;9.00;;;5.90;;
73776;SDS011;62088;50.240;2.696;2023-04-15T14:35:29;8.32;;;6.03;;
73776;SDS011;62088;50.240;2.696;2023-04-15T14:37:56;9.45;;;5.93;;
73776;SDS011;62088;50.240;2.696;2023-04-15T14:40:23;8.95;;;6.20;;
73776;SDS011;62088;50.240;2.696;2023-04-15T14:42:51;9.20;;;5.57;;
73776;SDS011;62088;50.240;2.696;2023-04-15T14:45:18;9.32;;;5.55;;
73776;SDS011;62088;50.240;2.696;2023-04-15T14:47:45;8.35;;;5.95;;
73776;SDS011;62088;50.240;2.696;2023-04-15T14:50:12;8.20;;;5.22;;
73776;SDS011;62088;50.240;2.696;2023-04-15T14:52:39;9.10;;;5.88;;
73776;SDS011;62088;50.240;2.696;2023-04-15T14:55:10;9.80;;;6.65;;
73776;SDS011;62088;50.240;2.696;2023-04-15T14:57:38;9.52;;;6.10;;
73776;SDS011;62088;50.240;2.696;2023-04-15T15:00:07;7.85;;;5.40;;
73776;SDS011;62088;50.240;2.696;2023-04-15T15:02:36;7.95;;;5.57;;
73776;SDS011;62088;50.240;2.696;2023-04-15T15:05:06;9.63;;;6.43;;
73776;SDS011;62088;50.240;2.696;2023-04-15T15:07:34;10.40;;;5.90;;
73776;SDS011;62088;50.240;2.696;2023-04-15T15:10:02;8.02;;;5.80;;
73776;SDS011;62088;50.240;2.696;2023-04-15T15:12:31;9.65;;;5.70;;